Time;durP1;ratioP1;P1;durP2;ratioP2;P2;SDS_P1;SDS_P2;PMS_P1;PMS_P2;Temp;Humidity;BMP_temperature;BMP_pressure;BME280_temperature;BME280_humidity;BME280_pressure;Samples;Min_cycle;Max_cycle;Signal;HPM_P1;HPM_P2
2022/12/25 00:00:10;;;;;;;0.10;0.10;;;9.70;99.90;;;;;;5069586;28;20283;-80
2022/12/25 00:02:36;;;;;;;0.10;0.10;;;9.60;99.90;;;;;;5071727;28;20185;-80
2022/12/25 00:05:03;;;;;;;0.10;0.10;;;9.80;99.90;;;;;;5069398;28;20192;-80
2022/12/25 00:07:28;;;;;;;0.10;0.10;;;9.60;99.90;;;;;;5055196;28;21176;-80
2022/12/25 00:09:54;;;;;;;0.10;0.10;;;9.50;99.90;;;;;;5056960;28;20209;-80
2022/12/25 00:12:21;;;;;;;0.10;0.10;;;9.60;99.90;;;;;;5055782;28;20671;-80
2022/12/25 00:14:47;;;;;;;0.10;0.10;;;9.50;99.90;;;;;;5071941;28;20681;-80
2022/12/25 00:17:12;;;;;;;0.10;0.10;;;9.40;99.90;;;;;;5056998;28;20186;-80
2022/12/25 00:19:38;;;;;;;0.10;0.10;;;9.30;99.90;;;;;;5054149;28;20463;-80
2022/12/25 00:22:03;;;;;;;0.10;0.10;;;9.40;99.90;;;;;;5070348;28;20244;-80
2022/12/25 00:24:29;;;;;;;0.10;0.10;;;9.40;99.90;;;;;;5071558;28;20432;-80
2022/12/25 00:26:54;;;;;;;0.10;0.10;;;9.50;99.90;;;;;;5071637;28;20555;-80
2022/12/25 00:29:20;;;;;;;0.10;0.10;;;9.70;99.90;;;;;;5070317;28;20230;-80
2022/12/25 00:31:46;;;;;;;0.10;0.10;;;9.80;99.90;;;;;;5055697;28;20182;-80
2022/12/25 00:34:11;;;;;;;0.10;0.10;;;9.90;99.90;;;;;;5055680;28;20275;-80
2022/12/25 00:36:37;;;;;;;0.00;0.00;;;9.80;99.90;;;;;;5057040;28;20919;-80
2022/12/25 00:39:02;;;;;;;0.10;0.10;;;9.70;99.90;;;;;;5055434;28;20196;-80
2022/12/25 00:44:12;;;;;;;0.10;0.10;;;9.60;99.90;;;;;;5057468;28;20189;-80
2022/12/25 00:46:39;;;;;;;0.10;0.10;;;9.50;99.90;;;;;;5055066;28;20188;-80
2022/12/25 00:49:05;;;;;;;0.10;0.10;;;9.50;99.90;;;;;;5071749;28;20238;-80
2022/12/25 00:51:30;;;;;;;0.10;0.10;;;9.40;99.90;;;;;;5070581;28;20227;-80
2022/12/25 00:53:56;;;;;;;0.10;0.10;;;9.50;99.90;;;;;;5055621;28;20181;-80
2022/12/25 00:56:21;;;;;;;0.10;0.10;;;9.60;99.90;;;;;;5071321;28;20192;-80
2022/12/25 00:58:47;;;;;;;0.10;0.10;;;9.60;99.90;;;;;;5067662;28;20200;-80
2022/12/25 01:01:13;;;;;;;0.10;0.10;;;9.50;99.90;;;;;;5054603;28;20216;-80
2022/12/25 01:03:38;;;;;;;0.10;0.10;;;9.40;99.90;;;;;;5053812;28;20627;-80
2022/12/25 01:06:07;;;;;;;0.10;0.10;;;9.20;99.90;;;;;;5054296;28;20653;-80
2022/12/25 01:08:36;;;;;;;0.10;0.10;;;9.10;99.90;;;;;;5054199;28;20196;-80
2022/12/25 01:11:07;;;;;;;0.10;0.10;;;9.10;99.90;;;;;;5054801;28;20236;-80
2022/12/25 01:13:34;;;;;;;0.10;0.10;;;9.00;99.90;;;;;;5054478;28;20213;-80
2022/12/25 01:16:08;;;;;;;0.10;0.10;;;9.00;99.90;;;;;;5052822;28;20177;-80
2022/12/25 01:18:34;;;;;;;0.10;0.10;;;9.10;99.90;;;;;;5054977;28;20287;-80
2022/12/25 01:21:09;;;;;;;0.10;0.10;;;9.30;99.90;;;;;;5055079;28;20748;-80
2022/12/25 01:23:35;;;;;;;0.10;0.10;;;9.30;99.90;;;;;;5054910;28;20215;-80
2022/12/25 01:26:05;;;;;;;0.10;0.10;;;9.50;99.90;;;;;;5070104;28;20217;-80
2022/12/25 01:28:30;;;;;;;0.10;0.10;;;9.50;99.90;;;;;;5054569;28;20188;-80
2022/12/25 01:30:56;;;;;;;0.10;0.10;;;9.60;99.90;;;;;;5069785;28;20239;-80
2022/12/25 01:33:21;;;;;;;0.10;0.10;;;9.70;99.90;;;;;;5070741;28;20558;-80
2022/12/25 01:35:47;;;;;;;0.10;0.10;;;9.70;99.90;;;;;;5070503;28;20275;-80
2022/12/25 01:38:12;;;;;;;0.67;0.67;;;9.80;99.90;;;;;;5070746;28;20181;-80
2022/12/25 01:40:38;;;;;;;0.10;0.10;;;9.40;99.90;;;;;;5053023;28;20199;-80
2022/12/25 01:43:23;;;;;;;0.10;0.10;;;9.40;99.90;;;;;;5068581;28;20220;-80
2022/12/25 01:45:51;;;;;;;0.10;0.10;;;9.30;99.90;;;;;;5054548;28;20180;-80
2022/12/25 01:48:20;;;;;;;0.10;0.10;;;9.20;99.90;;;;;;5054640;28;20227;-80
2022/12/25 01:50:57;;;;;;;0.10;0.10;;;9.20;99.90;;;;;;5068440;28;20242;-80
2022/12/25 01:53:24;;;;;;;0.00;0.00;;;9.20;99.90;;;;;;5054403;28;20211;-80
2022/12/25 01:55:56;;;;;;;0.10;0.10;;;9.10;99.90;;;;;;5054939;28;20553;-81
2022/12/25 01:58:22;;;;;;;0.10;0.10;;;9.10;99.90;;;;;;5053864;28;20200;-80
2022/12/25 02:00:49;;;;;;;0.10;0.10;;;9.00;99.90;;;;;;5070474;28;20356;-80
2022/12/25 02:03:15;;;;;;;0.10;0.10;;;8.90;99.90;;;;;;5054645;28;20199;-80
2022/12/25 02:05:41;;;;;;;0.10;0.10;;;9.00;99.90;;;;;;5054621;28;20699;-80
2022/12/25 02:08:13;;;;;;;0.10;0.10;;;9.10;99.90;;;;;;5070397;28;20192;-80
2022/12/25 02:10:38;;;;;;;0.10;0.10;;;9.10;99.90;;;;;;5053287;28;20215;-80
2022/12/25 02:13:05;;;;;;;0.10;0.10;;;9.00;99.90;;;;;;5068394;28;20647;-80
2022/12/25 02:15:51;;;;;;;0.10;0.10;;;8.90;99.90;;;;;;5051726;28;20182;-80
2022/12/25 02:18:32;;;;;;;0.10;0.10;;;9.00;99.90;;;;;;5053610;28;20196;-80
2022/12/25 02:21:22;;;;;;;0.10;0.10;;;8.90;99.90;;;;;;5053488;28;20226;-80
2022/12/25 02:24:30;;;;;;;0.10;0.10;;;9.00;99.90;;;;;;5054685;28;20211;-80
2022/12/25 02:27:26;;;;;;;0.10;0.10;;;9.00;99.90;;;;;;5053432;28;20195;-80
2022/12/25 02:30:04;;;;;;;0.10;0.10;;;8.90;99.90;;;;;;5053526;28;20231;-80
2022/12/25 02:34:01;;;;;;;0.10;0.10;;;8.90;99.90;;;;;;5052679;28;20852;-80
2022/12/25 02:35:42;;;;;;;0.10;0.10;;;8.80;99.90;;;;;;5053850;28;20198;-80
2022/12/25 02:38:21;;;;;;;0.07;0.07;;;8.90;99.90;;;;;;5056285;28;20214;-80
2022/12/25 02:40:54;;;;;;;0.10;0.10;;;8.90;99.90;;;;;;5050419;28;20237;-80
2022/12/25 03:06:41;;;;;;;0.10;0.10;;;9.20;99.90;;;;;;5056160;28;20326;-80
2022/12/25 03:12:36;;;;;;;0.10;0.10;;;9.20;99.90;;;;;;5057185;28;20222;-80
2022/12/25 03:17:48;;;;;;;0.10;0.10;;;9.30;99.90;;;;;;5058156;28;20694;-80
2022/12/25 03:28:27;;;;;;;0.10;0.10;;;8.90;99.90;;;;;;5058032;28;20715;-80
2022/12/25 03:31:41;;;;;;;0.10;0.10;;;8.80;99.90;;;;;;5071090;28;20216;-80
2022/12/25 03:47:20;;;;;;;0.10;0.10;;;9.00;99.90;;;;;;5055536;28;20209;-80
2022/12/25 04:36:40;;;;;;;0.10;0.10;;;9.00;99.90;;;;;;5057801;28;20622;-80
2022/12/25 04:39:05;;;;;;;0.10;0.10;;;9.00;99.90;;;;;;5069884;28;20266;-80
2022/12/25 04:41:31;;;;;;;0.10;0.10;;;8.90;99.90;;;;;;5054420;28;20622;-80
2022/12/25 04:43:56;;;;;;;0.10;0.10;;;9.00;99.90;;;;;;5056308;28;20190;-80
2022/12/25 04:46:22;;;;;;;0.10;0.10;;;9.20;99.90;;;;;;5070887;28;20552;-80
2022/12/25 04:48:47;;;;;;;0.10;0.10;;;9.20;99.90;;;;;;5057552;28;20192;-79
2022/12/25 04:51:19;;;;;;;0.10;0.10;;;9.10;99.90;;;;;;5069859;28;20247;-80
2022/12/25 04:53:46;;;;;;;0.10;0.10;;;9.10;99.90;;;;;;5070260;28;20242;-80
2022/12/25 04:56:12;;;;;;;0.10;0.10;;;8.90;99.90;;;;;;5056001;28;20578;-80
2022/12/25 04:58:38;;;;;;;0.10;0.10;;;8.90;99.90;;;;;;5054609;28;20188;-80
2022/12/25 05:01:04;;;;;;;0.10;0.10;;;8.80;99.90;;;;;;5067453;28;20220;-80
2022/12/25 05:03:30;;;;;;;0.20;0.20;;;8.80;99.90;;;;;;5069669;28;20306;-80
2022/12/25 05:05:55;;;;;;;0.10;0.10;;;8.80;99.90;;;;;;5070861;28;20241;-80
2022/12/25 05:08:21;;;;;;;0.07;0.07;;;8.80;99.90;;;;;;5055133;28;20322;-80
2022/12/25 05:10:47;;;;;;;0.10;0.10;;;8.80;99.90;;;;;;5070689;28;20221;-80
2022/12/25 05:13:12;;;;;;;0.10;0.10;;;9.00;99.90;;;;;;5054593;28;20195;-80
2022/12/25 05:15:39;;;;;;;0.10;0.10;;;9.20;99.90;;;;;;5070283;28;20203;-80
2022/12/25 05:18:04;;;;;;;0.10;0.10;;;9.20;99.90;;;;;;5069907;28;20216;-80
2022/12/25 05:20:30;;;;;;;0.10;0.10;;;9.20;99.90;;;;;;5053551;28;20719;-80
2022/12/25 05:22:55;;;;;;;0.10;0.10;;;9.20;99.90;;;;;;5069994;28;20221;-79
2022/12/25 05:25:21;;;;;;;0.00;0.00;;;9.10;99.90;;;;;;5054449;28;20238;-80
2022/12/25 05:27:46;;;;;;;0.10;0.10;;;9.10;99.90;;;;;;5069455;28;21168;-81
2022/12/25 05:30:12;;;;;;;0.10;0.10;;;9.10;99.90;;;;;;5068368;28;20254;-80
2022/12/25 05:32:38;;;;;;;0.10;0.10;;;9.00;99.90;;;;;;5068689;28;20180;-80
2022/12/25 05:35:04;;;;;;;0.10;0.10;;;9.00;99.90;;;;;;5070254;28;20189;-80
2022/12/25 05:37:29;;;;;;;0.10;0.10;;;8.90;99.90;;;;;;5068757;28;20191;-80
2022/12/25 05:39:55;;;;;;;0.10;0.10;;;8.90;99.90;;;;;;5069529;28;20809;-80
2022/12/25 05:42:20;;;;;;;0.10;0.10;;;8.80;99.90;;;;;;5052462;28;20197;-80
2022/12/25 05:44:46;;;;;;;0.00;0.00;;;8.90;99.90;;;;;;5070531;28;20192;-80
2022/12/25 05:47:11;;;;;;;0.10;0.10;;;9.00;99.90;;;;;;5068318;28;20662;-80
2022/12/25 05:49:36;;;;;;;0.10;0.10;;;9.10;99.90;;;;;;5068409;28;20258;-80
2022/12/25 05:52:02;;;;;;;0.10;0.10;;;9.30;99.90;;;;;;5054718;28;20715;-80
2022/12/25 05:54:28;;;;;;;0.10;0.10;;;9.40;99.90;;;;;;5053447;28;20176;-80
2022/12/25 05:56:53;;;;;;;0.10;0.10;;;9.30;99.90;;;;;;5069184;28;21188;-80
2022/12/25 05:59:19;;;;;;;0.10;0.10;;;9.10;99.90;;;;;;5085617;28;20264;-80
2022/12/25 06:01:45;;;;;;;0.10;0.10;;;9.10;99.90;;;;;;5068493;28;20179;-80
2022/12/25 06:04:10;;;;;;;0.10;0.10;;;9.00;99.90;;;;;;5068801;28;20220;-80
2022/12/25 06:06:36;;;;;;;0.10;0.10;;;9.00;99.90;;;;;;5052348;28;20217;-80
2022/12/25 06:09:01;;;;;;;0.10;0.10;;;9.00;99.90;;;;;;5052251;28;20190;-80
2022/12/25 06:11:27;;;;;;;0.10;0.10;;;8.90;99.90;;;;;;5069086;28;20207;-80
2022/12/25 06:13:52;;;;;;;0.10;0.10;;;8.90;99.90;;;;;;5068171;28;20271;-80
2022/12/25 06:16:19;;;;;;;0.10;0.10;;;9.00;99.90;;;;;;5069416;28;20199;-80
2022/12/25 06:18:47;;;;;;;0.10;0.10;;;9.00;99.90;;;;;;5053723;28;20264;-80
2022/12/25 06:21:14;;;;;;;0.00;0.00;;;9.00;99.90;;;;;;5068855;28;20650;-80
2022/12/25 06:23:40;;;;;;;0.10;0.10;;;9.10;99.90;;;;;;5068518;28;20715;-80
2022/12/25 06:26:10;;;;;;;0.10;0.10;;;9.10;99.90;;;;;;5068387;28;20293;-80
2022/12/25 06:28:36;;;;;;;0.10;0.10;;;9.20;99.90;;;;;;5054252;28;20195;-80
2022/12/25 06:31:13;;;;;;;0.10;0.10;;;9.10;99.90;;;;;;5055061;28;20216;-80
2022/12/25 06:33:39;;;;;;;0.07;0.07;;;9.10;99.90;;;;;;5073887;28;20176;-80
2022/12/25 06:36:25;;;;;;;0.10;0.10;;;9.10;99.90;;;;;;5056926;28;20183;-80
2022/12/25 06:38:51;;;;;;;0.10;0.10;;;9.10;99.90;;;;;;5056977;28;20237;-80
2022/12/25 06:41:25;;;;;;;0.10;0.10;;;9.10;99.90;;;;;;5056606;28;20208;-80
2022/12/25 06:43:58;;;;;;;0.10;0.10;;;9.20;99.90;;;;;;5055829;28;20187;-80
2022/12/25 06:46:28;;;;;;;0.10;0.10;;;9.30;99.90;;;;;;5073050;28;20194;-80
2022/12/25 06:48:54;;;;;;;0.10;0.10;;;9.20;99.90;;;;;;5058636;28;20287;-80
2022/12/25 06:51:25;;;;;;;0.10;0.10;;;9.20;99.90;;;;;;5057287;28;20314;-80
2022/12/25 06:53:51;;;;;;;0.10;0.10;;;9.30;99.90;;;;;;5073403;28;20176;-80
2022/12/25 06:56:22;;;;;;;0.10;0.10;;;9.30;99.90;;;;;;5056553;28;20275;-80
2022/12/25 06:58:51;;;;;;;0.10;0.10;;;9.40;99.90;;;;;;5056206;28;20203;-80
2022/12/25 07:01:22;;;;;;;0.10;0.10;;;9.60;99.90;;;;;;5058671;28;20714;-80
2022/12/25 07:03:51;;;;;;;0.00;0.00;;;9.70;99.90;;;;;;5072388;28;20196;-80
2022/12/25 07:06:16;;;;;;;0.10;0.10;;;9.80;99.90;;;;;;5055652;28;21055;-80
2022/12/25 07:08:42;;;;;;;0.10;0.10;;;9.80;99.90;;;;;;5056857;28;20229;-80
2022/12/25 07:11:07;;;;;;;0.10;0.10;;;9.80;99.90;;;;;;5072095;28;20645;-80
2022/12/25 07:13:33;;;;;;;0.10;0.10;;;9.70;99.90;;;;;;5057845;28;20185;-80
2022/12/25 07:16:00;;;;;;;0.10;0.10;;;9.60;99.90;;;;;;5071668;28;20219;-79
2022/12/25 07:18:26;;;;;;;0.10;0.10;;;9.50;99.90;;;;;;5056384;28;20183;-80
2022/12/25 07:20:54;;;;;;;0.10;0.10;;;9.30;99.90;;;;;;5056539;28;20587;-80
2022/12/25 07:23:20;;;;;;;0.10;0.10;;;9.30;99.90;;;;;;5072624;28;20690;-79
2022/12/25 07:25:53;;;;;;;0.00;0.00;;;9.30;99.90;;;;;;5055454;28;20274;-80
2022/12/25 07:28:18;;;;;;;0.10;0.10;;;9.20;99.90;;;;;;5056367;28;20184;-80
2022/12/25 07:30:44;;;;;;;0.10;0.10;;;9.20;99.90;;;;;;5055577;28;20220;-80
2022/12/25 07:33:09;;;;;;;0.10;0.10;;;9.20;99.90;;;;;;5057648;28;20199;-80
2022/12/25 07:35:36;;;;;;;0.10;0.10;;;9.20;99.90;;;;;;5071259;28;20238;-80
2022/12/25 07:38:01;;;;;;;0.10;0.10;;;9.10;99.90;;;;;;5071809;28;20217;-80
2022/12/25 07:40:26;;;;;;;0.10;0.10;;;9.00;99.90;;;;;;5056096;28;20631;-80
2022/12/25 07:42:52;;;;;;;0.10;0.10;;;9.10;99.90;;;;;;5068943;28;20195;-80
2022/12/25 07:45:17;;;;;;;0.10;0.10;;;9.10;99.90;;;;;;5056689;28;20197;-80
2022/12/25 07:47:43;;;;;;;0.00;0.00;;;9.20;99.90;;;;;;5072712;28;20196;-80
2022/12/25 07:50:09;;;;;;;0.10;0.10;;;9.10;99.90;;;;;;5056707;28;20265;-80
2022/12/25 07:52:34;;;;;;;0.10;0.10;;;9.10;99.90;;;;;;5071535;28;20410;-80
2022/12/25 07:55:00;;;;;;;0.10;0.10;;;9.10;99.90;;;;;;5071254;28;20234;-80
2022/12/25 07:57:25;;;;;;;1.20;1.20;;;9.20;99.90;;;;;;5072031;28;20196;-80
2022/12/25 07:59:51;;;;;;;0.10;0.10;;;9.30;99.90;;;;;;5071081;28;20203;-80
2022/12/25 08:02:16;;;;;;;0.10;0.10;;;9.30;99.90;;;;;;5086602;28;20199;-80
2022/12/25 08:04:42;;;;;;;0.10;0.10;;;9.30;99.90;;;;;;5057911;28;20193;-80
2022/12/25 08:07:07;;;;;;;0.10;0.10;;;9.20;99.90;;;;;;5054652;28;20256;-80
2022/12/25 08:09:34;;;;;;;0.10;0.10;;;9.30;99.90;;;;;;5071832;28;20181;-80
2022/12/25 08:11:59;;;;;;;0.10;0.10;;;9.20;99.90;;;;;;5070522;28;20208;-80
2022/12/25 08:14:25;;;;;;;0.10;0.10;;;9.20;99.90;;;;;;5069708;28;20443;-80
2022/12/25 08:16:51;;;;;;;0.10;0.10;;;9.10;99.90;;;;;;5070408;28;20187;-80
2022/12/25 08:19:16;;;;;;;0.10;0.10;;;9.20;99.90;;;;;;5056953;28;20184;-80
2022/12/25 08:21:42;;;;;;;0.10;0.10;;;9.20;99.90;;;;;;5072369;28;20585;-80
2022/12/25 08:24:07;;;;;;;0.10;0.10;;;9.40;99.90;;;;;;5055168;28;20206;-80
2022/12/25 08:26:33;;;;;;;0.10;0.10;;;9.40;99.90;;;;;;5070903;28;20591;-80
2022/12/25 08:28:58;;;;;;;0.10;0.10;;;9.50;99.90;;;;;;5055504;28;20200;-80
2022/12/25 08:31:27;;;;;;;0.10;0.10;;;9.50;99.90;;;;;;5070592;28;20581;-80
2022/12/25 08:33:55;;;;;;;0.10;0.10;;;9.50;99.90;;;;;;5055396;28;20197;-80
2022/12/25 08:36:21;;;;;;;0.10;0.10;;;9.70;99.90;;;;;;5055374;28;20189;-80
2022/12/25 08:38:47;;;;;;;0.10;0.10;;;9.80;99.90;;;;;;5055168;28;20200;-80
2022/12/25 08:41:14;;;;;;;0.10;0.10;;;9.80;99.90;;;;;;5071091;28;20221;-80
2022/12/25 08:43:40;;;;;;;0.10;0.10;;;9.70;99.90;;;;;;5055208;28;20193;-80
2022/12/25 08:46:05;;;;;;;0.10;0.10;;;9.70;99.90;;;;;;5055036;28;20192;-80
2022/12/25 08:48:31;;;;;;;0.10;0.10;;;9.70;99.90;;;;;;5055834;28;20243;-80
2022/12/25 08:50:57;;;;;;;0.10;0.10;;;9.60;99.90;;;;;;5052774;28;20248;-80
2022/12/25 08:53:23;;;;;;;0.10;0.10;;;9.70;99.90;;;;;;5053727;28;20196;-80
2022/12/25 08:55:48;;;;;;;0.10;0.10;;;9.60;99.90;;;;;;5055092;28;20189;-80
2022/12/25 08:58:15;;;;;;;0.10;0.10;;;9.80;99.90;;;;;;5070818;28;20213;-80
2022/12/25 09:00:41;;;;;;;0.10;0.10;;;9.90;99.90;;;;;;5054047;28;20209;-80
2022/12/25 09:03:07;;;;;;;0.10;0.10;;;9.90;99.90;;;;;;5055721;28;20204;-80
2022/12/25 09:05:36;;;;;;;0.33;0.33;;;10.00;99.90;;;;;;5054190;28;20193;-80
2022/12/25 09:08:02;;;;;;;0.10;0.10;;;10.10;99.90;;;;;;5054621;28;21282;-80
2022/12/25 09:10:28;;;;;;;0.10;0.10;;;10.10;99.90;;;;;;5068936;28;20236;-81
2022/12/25 09:12:53;;;;;;;0.10;0.10;;;10.00;99.90;;;;;;5056302;28;20562;-80
2022/12/25 09:15:18;;;;;;;0.10;0.10;;;9.80;99.90;;;;;;5056783;28;20185;-80
2022/12/25 09:17:44;;;;;;;0.10;0.10;;;9.70;99.90;;;;;;5054676;28;20188;-81
2022/12/25 09:20:09;;;;;;;0.10;0.10;;;9.60;99.90;;;;;;5069104;28;20285;-81
2022/12/25 09:22:35;;;;;;;0.10;0.10;;;9.50;99.90;;;;;;5052912;28;20196;-81
2022/12/25 09:25:00;;;;;;;0.10;0.10;;;9.50;99.90;;;;;;5054712;28;20617;-81
2022/12/25 09:27:26;;;;;;;0.10;0.10;;;9.50;99.90;;;;;;5053894;28;20180;-81
2022/12/25 09:29:51;;;;;;;0.10;0.10;;;9.50;99.90;;;;;;5053578;28;20598;-81
2022/12/25 09:32:17;;;;;;;0.10;0.10;;;9.50;99.90;;;;;;5067616;28;20349;-80
2022/12/25 09:34:42;;;;;;;0.10;0.10;;;9.60;99.90;;;;;;5069005;28;20942;-81
2022/12/25 09:37:08;;;;;;;0.10;0.10;;;9.60;99.90;;;;;;5054108;28;21440;-81
2022/12/25 09:39:33;;;;;;;0.10;0.10;;;9.70;99.90;;;;;;5052206;28;20600;-81
2022/12/25 09:42:15;;;;;;;0.10;0.10;;;9.70;99.90;;;;;;5067735;28;20189;-81
2022/12/25 09:44:46;;;;;;;0.10;0.10;;;9.70;99.90;;;;;;5053662;28;20769;-81
2022/12/25 09:47:16;;;;;;;0.10;0.10;;;9.80;99.90;;;;;;5053275;28;20631;-81
2022/12/25 09:49:59;;;;;;;0.00;0.00;;;9.80;99.90;;;;;;5069027;28;20208;-81
2022/12/25 09:52:45;;;;;;;0.10;0.10;;;9.80;99.90;;;;;;5066157;28;20181;-81
2022/12/25 09:55:18;;;;;;;0.10;0.10;;;9.80;99.90;;;;;;5067831;28;20187;-81
2022/12/25 09:57:48;;;;;;;0.10;0.10;;;9.90;99.90;;;;;;5051874;28;20204;-81
2022/12/25 10:00:20;;;;;;;0.10;0.10;;;9.90;99.90;;;;;;5069133;28;20213;-80
2022/12/25 10:03:12;;;;;;;0.10;0.10;;;9.90;99.90;;;;;;5052267;28;20269;-81
2022/12/25 10:05:59;;;;;;;0.10;0.10;;;10.10;99.90;;;;;;5065618;28;20378;-81
2022/12/25 10:08:34;;;;;;;0.10;0.10;;;10.30;99.90;;;;;;5054576;28;20201;-81
2022/12/25 10:11:34;;;;;;;0.10;0.10;;;10.20;99.90;;;;;;5051841;28;20755;-80
2022/12/25 10:14:29;;;;;;;0.10;0.10;;;10.50;99.90;;;;;;5054862;28;20227;-81
2022/12/25 10:17:07;;;;;;;0.10;0.10;;;10.80;99.90;;;;;;5052669;28;20181;-81
2022/12/25 10:19:41;;;;;;;0.00;0.00;;;10.80;99.90;;;;;;5067360;28;20212;-80
2022/12/25 10:22:13;;;;;;;0.10;0.10;;;10.70;99.90;;;;;;5068912;28;20196;-80
2022/12/25 10:24:50;;;;;;;0.10;0.10;;;10.80;99.90;;;;;;5067608;28;20243;-80
2022/12/25 10:27:25;;;;;;;0.10;0.10;;;10.80;99.90;;;;;;5053263;28;20189;-80
2022/12/25 10:29:55;;;;;;;0.10;0.10;;;10.60;99.90;;;;;;5050680;28;20655;-81
2022/12/25 10:32:21;;;;;;;0.10;0.10;;;10.60;99.90;;;;;;5053628;28;20227;-81
2022/12/25 10:34:47;;;;;;;0.10;0.10;;;10.80;99.90;;;;;;5052300;28;20282;-81
2022/12/25 10:37:13;;;;;;;0.10;0.10;;;10.90;99.90;;;;;;5053283;28;20933;-81
2022/12/25 10:39:39;;;;;;;0.00;0.00;;;10.90;99.90;;;;;;5051913;28;20284;-80
2022/12/25 10:42:23;;;;;;;0.10;0.10;;;10.70;99.90;;;;;;5054209;28;20186;-81
2022/12/25 10:45:07;;;;;;;0.10;0.10;;;10.70;99.90;;;;;;5067000;28;20195;-81
2022/12/25 10:47:43;;;;;;;0.10;0.10;;;10.70;99.90;;;;;;5053572;28;20647;-80
2022/12/25 10:50:18;;;;;;;0.10;0.10;;;10.60;99.90;;;;;;5053180;28;20209;-81
2022/12/25 10:52:55;;;;;;;0.10;0.10;;;10.70;99.90;;;;;;5067412;28;20192;-80
2022/12/25 10:55:21;;;;;;;0.10;0.10;;;10.80;99.90;;;;;;5051732;28;20173;-80
2022/12/25 10:57:47;;;;;;;0.10;0.10;;;10.90;99.90;;;;;;5066939;28;21040;-81
2022/12/25 11:00:21;;;;;;;0.10;0.10;;;11.00;99.90;;;;;;5067981;28;20232;-81
2022/12/25 11:02:47;;;;;;;0.10;0.10;;;10.90;99.90;;;;;;5052250;28;20187;-80
2022/12/25 11:05:27;;;;;;;0.10;0.10;;;10.80;99.90;;;;;;5052195;28;20662;-81
2022/12/25 11:07:54;;;;;;;0.10;0.10;;;10.80;99.90;;;;;;5052045;28;20646;-81
2022/12/25 11:10:30;;;;;;;0.10;0.10;;;10.90;99.90;;;;;;5052522;28;20296;-81
2022/12/25 11:12:56;;;;;;;0.00;0.00;;;10.90;99.90;;;;;;5052449;28;20207;-81
2022/12/25 11:15:43;;;;;;;0.10;0.10;;;11.10;99.90;;;;;;5051926;28;20192;-80
2022/12/25 11:18:21;;;;;;;0.10;0.10;;;11.30;99.90;;;;;;5055141;28;20202;-81
2022/12/25 11:20:55;;;;;;;0.10;0.10;;;11.30;99.90;;;;;;5058055;28;20205;-81
2022/12/25 11:23:22;;;;;;;0.10;0.10;;;11.20;99.90;;;;;;5055599;28;20339;-81
2022/12/25 11:26:00;;;;;;;0.10;0.10;;;11.00;99.90;;;;;;5071323;28;20185;-82
2022/12/25 11:28:27;;;;;;;0.00;0.00;;;11.00;99.90;;;;;;5053223;28;20319;-81
2022/12/25 11:31:01;;;;;;;0.10;0.10;;;10.90;99.90;;;;;;5055680;28;20213;-80
2022/12/25 11:33:35;;;;;;;0.10;0.10;;;11.00;99.90;;;;;;5058749;28;20234;-81
2022/12/25 11:36:06;;;;;;;0.10;0.10;;;11.20;99.90;;;;;;5059192;28;20181;-81
2022/12/25 11:38:32;;;;;;;0.10;0.10;;;11.20;99.90;;;;;;5059257;28;20799;-80
2022/12/25 11:41:00;;;;;;;0.10;0.10;;;11.30;99.90;;;;;;5073382;28;20205;-80
2022/12/25 11:43:35;;;;;;;0.10;0.10;;;11.40;99.90;;;;;;5073673;28;20810;-81
2022/12/25 11:46:17;;;;;;;0.10;0.10;;;11.50;99.90;;;;;;5058361;28;20244;-80
2022/12/25 11:48:48;;;;;;;0.10;0.10;;;11.30;99.90;;;;;;5061664;28;20232;-82
2022/12/25 11:51:15;;;;;;;0.10;0.10;;;11.20;99.90;;;;;;5072924;28;20208;-81
2022/12/25 11:53:47;;;;;;;0.10;0.10;;;11.20;99.90;;;;;;5085681;28;20185;-80
2022/12/25 11:56:33;;;;;;;0.10;0.10;;;11.00;99.90;;;;;;5075317;28;20268;-81
2022/12/25 11:59:08;;;;;;;0.10;0.10;;;11.30;99.90;;;;;;5060414;28;20189;-79
2022/12/25 12:01:42;;;;;;;0.10;0.10;;;11.10;99.90;;;;;;5079548;28;20206;-81
2022/12/25 12:04:22;;;;;;;0.10;0.10;;;11.10;99.90;;;;;;5061074;28;20248;-80
2022/12/25 12:06:59;;;;;;;0.10;0.10;;;11.10;99.90;;;;;;5060547;28;20226;-81
2022/12/25 12:09:28;;;;;;;0.10;0.10;;;10.90;99.90;;;;;;5076424;28;20180;-81
2022/12/25 12:12:18;;;;;;;0.10;0.10;;;11.30;99.90;;;;;;5074612;28;20209;-81
2022/12/25 12:14:51;;;;;;;0.10;0.10;;;11.50;99.90;;;;;;5072632;28;20185;-82
2022/12/25 12:17:18;;;;;;;1.50;1.50;;;11.80;99.90;;;;;;5076425;28;20513;-80
2022/12/25 12:19:44;;;;;;;0.10;0.10;;;11.90;99.90;;;;;;5055880;28;20202;-81
2022/12/25 12:22:18;;;;;;;0.10;0.10;;;11.80;99.90;;;;;;5057342;28;20252;-80
2022/12/25 12:24:48;;;;;;;0.10;0.10;;;11.90;99.90;;;;;;5058581;28;20330;-81
2022/12/25 12:27:23;;;;;;;0.10;0.10;;;11.90;99.90;;;;;;5073382;28;20178;-81
2022/12/25 12:29:54;;;;;;;0.10;0.10;;;11.90;99.90;;;;;;5055817;28;20244;-81
2022/12/25 12:32:46;;;;;;;0.10;0.10;;;12.00;99.90;;;;;;5072592;28;20181;-81
2022/12/25 12:35:17;;;;;;;0.10;0.10;;;11.80;99.90;;;;;;5057533;28;20506;-80
2022/12/25 12:37:45;;;;;;;0.10;0.10;;;12.00;99.90;;;;;;5056618;28;20556;-81
2022/12/25 12:40:35;;;;;;;0.10;0.10;;;11.90;99.90;;;;;;5074628;28;20570;-81
2022/12/25 12:43:01;;;;;;;0.00;0.00;;;11.90;99.90;;;;;;5075241;28;20196;-81
2022/12/25 12:45:33;;;;;;;0.10;0.10;;;11.80;99.90;;;;;;5072670;28;20906;-81
2022/12/25 12:47:59;;;;;;;0.10;0.10;;;11.70;99.90;;;;;;5073648;28;20189;-81
2022/12/25 12:50:36;;;;;;;0.10;0.10;;;11.90;99.90;;;;;;5057672;28;20206;-81
2022/12/25 12:53:30;;;;;;;0.10;0.10;;;11.90;99.90;;;;;;5056594;28;20649;-80
2022/12/25 12:56:06;;;;;;;0.10;0.10;;;12.10;99.90;;;;;;5054652;28;20268;-81
2022/12/25 12:58:38;;;;;;;0.10;0.10;;;12.30;99.90;;;;;;5072508;28;20196;-80
2022/12/25 13:01:11;;;;;;;0.10;0.10;;;12.40;99.90;;;;;;5056604;28;20231;-80
2022/12/25 13:03:52;;;;;;;0.10;0.10;;;12.40;99.90;;;;;;5056191;28;20178;-80
2022/12/25 13:06:44;;;;;;;0.10;0.10;;;12.20;99.90;;;;;;5053524;28;20189;-80
2022/12/25 13:09:13;;;;;;;0.10;0.10;;;12.40;99.90;;;;;;5069455;28;20183;-81
2022/12/25 13:11:41;;;;;;;0.10;0.10;;;12.30;99.90;;;;;;5067537;28;20702;-81
2022/12/25 13:14:19;;;;;;;0.10;0.10;;;12.30;99.90;;;;;;5054611;28;20250;-81
2022/12/25 13:16:47;;;;;;;0.10;0.10;;;12.40;99.90;;;;;;5053879;28;20192;-81
2022/12/25 13:19:21;;;;;;;0.10;0.10;;;12.50;99.90;;;;;;5053517;28;20189;-81
2022/12/25 13:21:57;;;;;;;0.10;0.10;;;12.40;99.90;;;;;;5051401;28;20235;-81
2022/12/25 13:24:27;;;;;;;0.10;0.10;;;12.40;99.90;;;;;;5053091;28;20276;-81
2022/12/25 13:26:53;;;;;;;0.00;0.00;;;12.20;99.90;;;;;;5053739;28;20194;-81
2022/12/25 13:29:37;;;;;;;0.10;0.10;;;12.20;99.90;;;;;;5067523;28;20182;-81
2022/12/25 13:32:05;;;;;;;0.10;0.10;;;12.20;99.90;;;;;;5053264;28;20224;-81
2022/12/25 13:34:37;;;;;;;0.10;0.10;;;12.30;99.90;;;;;;5055801;28;20579;-81
2022/12/25 13:37:15;;;;;;;0.10;0.10;;;12.00;99.90;;;;;;5067304;28;20667;-81
2022/12/25 13:39:51;;;;;;;0.10;0.10;;;11.80;99.90;;;;;;5068483;28;20213;-81
2022/12/25 13:42:20;;;;;;;0.10;0.10;;;11.70;99.90;;;;;;5054026;28;20232;-81
2022/12/25 13:44:53;;;;;;;0.10;0.10;;;11.80;99.90;;;;;;5051983;28;20192;-81
2022/12/25 13:47:23;;;;;;;0.10;0.10;;;11.40;99.90;;;;;;5053527;28;20177;-81
2022/12/25 13:49:51;;;;;;;0.10;0.10;;;11.40;99.90;;;;;;5068098;28;20212;-81
2022/12/25 13:52:27;;;;;;;0.10;0.10;;;11.50;99.90;;;;;;5054729;28;20189;-81
2022/12/25 13:54:58;;;;;;;0.10;0.10;;;11.30;99.90;;;;;;5069864;28;20185;-81
2022/12/25 13:57:27;;;;;;;0.10;0.10;;;11.30;99.90;;;;;;5067635;28;20261;-81
2022/12/25 13:59:54;;;;;;;0.10;0.10;;;11.10;99.90;;;;;;5052471;28;20297;-81
2022/12/25 14:02:27;;;;;;;0.10;0.10;;;11.00;99.90;;;;;;5050260;28;20200;-82
2022/12/25 14:04:52;;;;;;;0.10;0.10;;;11.00;99.90;;;;;;5050023;28;20276;-80
2022/12/25 14:07:22;;;;;;;0.10;0.10;;;11.10;99.90;;;;;;5051476;28;20666;-81
2022/12/25 14:09:53;;;;;;;0.10;0.10;;;11.10;99.90;;;;;;5052985;28;20209;-80
2022/12/25 14:12:20;;;;;;;0.10;0.10;;;11.00;99.90;;;;;;5053421;28;20177;-81
2022/12/25 14:14:46;;;;;;;0.10;0.10;;;11.00;99.90;;;;;;5051344;28;20741;-81
2022/12/25 14:17:12;;;;;;;0.10;0.10;;;11.00;99.90;;;;;;5053917;28;20258;-81
2022/12/25 14:19:37;;;;;;;0.10;0.10;;;11.00;99.90;;;;;;5068291;28;20193;-82
2022/12/25 14:22:10;;;;;;;0.10;0.10;;;11.00;99.90;;;;;;5052053;28;20194;-81
2022/12/25 14:24:38;;;;;;;0.10;0.10;;;10.90;99.90;;;;;;5054978;28;20560;-82
2022/12/25 14:27:13;;;;;;;0.10;0.10;;;10.90;99.90;;;;;;5067943;28;20265;-81
2022/12/25 14:29:42;;;;;;;0.10;0.10;;;11.00;99.90;;;;;;5053218;28;20203;-81
2022/12/25 14:32:18;;;;;;;0.10;0.10;;;10.90;99.90;;;;;;5068331;28;20300;-81
2022/12/25 14:34:46;;;;;;;0.10;0.10;;;10.90;99.90;;;;;;5052797;28;20180;-80
2022/12/25 14:37:17;;;;;;;0.10;0.10;;;10.90;99.90;;;;;;5053625;28;20211;-81
2022/12/25 14:39:46;;;;;;;0.10;0.10;;;10.90;99.90;;;;;;5055515;28;20556;-81
2022/12/25 14:42:20;;;;;;;0.10;0.10;;;10.90;99.90;;;;;;5051798;28;20178;-82
2022/12/25 14:45:30;;;;;;;0.10;0.10;;;10.80;99.90;;;;;;5053109;28;20185;-80
2022/12/25 14:47:58;;;;;;;0.10;0.10;;;10.70;99.90;;;;;;5060879;28;20189;-80